Time;durP1;ratioP1;P1;durP2;ratioP2;P2;SDS_P1;SDS_P2;PMS_P1;PMS_P2;Temp;Humidity;BMP_temperature;BMP_pressure;BME280_temperature;BME280_humidity;BME280_pressure;Samples;Min_cycle;Max_cycle;Signal;HPM_P1;HPM_P2
2022/06/28 00:00:40;;;;;;;12.30;8.20;;;24.00;99.90;24.20;99006.00;;;;4963913;28;87160;-61
2022/06/28 00:03:06;;;;;;;11.57;8.70;;;23.90;99.90;24.20;99015.00;;;;4978964;28;87139;-61
2022/06/28 00:05:32;;;;;;;12.40;8.45;;;23.90;99.90;24.20;99018.00;;;;4981810;28;87093;-62
2022/06/28 00:07:59;;;;;;;13.93;8.13;;;23.90;99.90;24.20;99013.00;;;;4963974;28;87638;-62
2022/06/28 00:10:26;;;;;;;15.60;8.52;;;23.90;99.90;24.20;99020.00;;;;4980729;28;87453;-62
2022/06/28 00:12:52;;;;;;;10.25;8.07;;;23.90;99.90;24.20;99018.00;;;;4963856;28;87557;-62
2022/06/28 00:18:23;;;;;;;11.18;8.65;;;23.90;99.90;24.20;99019.00;;;;4942265;28;87771;-62
2022/06/28 00:20:49;;;;;;;14.55;8.57;;;23.90;99.90;24.10;99025.00;;;;4943628;28;88523;-62
2022/06/28 00:23:15;;;;;;;11.13;7.65;;;23.90;99.90;24.10;99029.00;;;;4961746;28;88130;-62
2022/06/28 00:25:41;;;;;;;12.95;8.25;;;23.80;99.90;24.10;99026.00;;;;4984264;28;87009;-61
2022/06/28 00:28:07;;;;;;;16.17;8.40;;;23.80;99.90;24.00;99034.00;;;;4984000;28;87621;-62
2022/06/28 00:30:33;;;;;;;14.95;8.40;;;23.70;99.90;23.90;99047.00;;;;4973217;28;88407;-61
2022/06/28 00:33:00;;;;;;;11.98;8.25;;;23.60;99.90;23.80;99027.00;;;;4965994;28;87000;-61
2022/06/28 00:35:29;;;;;;;11.93;8.55;;;23.60;99.90;23.80;99029.00;;;;4983370;28;87931;-61
2022/06/28 00:37:55;;;;;;;13.57;8.60;;;23.50;99.90;23.80;99037.00;;;;4982702;28;87820;-61
2022/06/28 00:40:21;;;;;;;14.13;8.02;;;23.50;99.90;23.70;99033.00;;;;4966661;28;88264;-61
2022/06/28 00:42:47;;;;;;;14.93;8.27;;;23.40;99.90;23.70;99033.00;;;;4966573;28;87085;-62
2022/06/28 00:45:14;;;;;;;13.25;8.90;;;23.40;99.90;23.60;99033.00;;;;4969894;28;87085;-61
2022/06/28 00:47:41;;;;;;;13.82;8.85;;;23.40;99.90;23.50;99036.00;;;;4965418;28;89640;-60
2022/06/28 00:50:08;;;;;;;12.40;8.88;;;23.30;99.90;23.50;99037.00;;;;4966321;28;87390;-61
2022/06/28 00:52:35;;;;;;;12.55;8.95;;;23.30;99.90;23.50;99038.00;;;;4966479;28;87137;-60
2022/06/28 00:55:01;;;;;;;15.00;8.95;;;23.30;99.90;23.50;99036.00;;;;4983488;28;87055;-60
2022/06/28 00:57:27;;;;;;;12.25;8.65;;;23.20;99.90;23.40;99047.00;;;;4983139;28;88915;-60
2022/06/28 00:59:53;;;;;;;16.13;9.05;;;23.20;99.90;23.40;99037.00;;;;4966372;28;87950;-60
2022/06/28 01:02:19;;;;;;;11.23;9.40;;;23.20;99.90;23.40;99031.00;;;;4982989;28;87164;-61
2022/06/28 01:04:46;;;;;;;13.45;9.57;;;23.20;99.90;23.40;99037.00;;;;4949794;28;86896;-60
2022/06/28 01:07:12;;;;;;;11.95;8.85;;;23.20;99.90;23.40;99049.00;;;;4983027;28;87712;-60
2022/06/28 01:09:39;;;;;;;13.80;9.32;;;23.20;99.90;23.40;99051.00;;;;4982887;28;87910;-61
2022/06/28 01:12:05;;;;;;;13.90;8.90;;;23.10;99.90;23.40;99043.00;;;;4968216;28;88147;-60
2022/06/28 01:14:34;;;;;;;12.45;9.18;;;23.10;99.90;23.40;99047.00;;;;4982451;28;87021;-60
2022/06/28 01:17:07;;;;;;;13.40;9.38;;;23.10;99.90;23.30;99056.00;;;;4950321;28;89346;-60
2022/06/28 01:19:41;;;;;;;12.60;9.27;;;23.10;99.90;23.30;99052.00;;;;4966213;28;88651;-60
2022/06/28 01:22:20;;;;;;;15.27;9.68;;;23.00;99.90;23.20;99053.00;;;;4982450;28;87068;-61
2022/06/28 01:24:47;;;;;;;14.35;9.10;;;23.00;99.90;23.20;99059.00;;;;4966088;28;86963;-60
2022/06/28 01:27:20;;;;;;;13.45;10.07;;;22.90;99.90;23.10;99058.00;;;;4954553;28;88696;-61
2022/06/28 01:29:46;;;;;;;14.38;9.27;;;22.90;99.90;23.10;99060.00;;;;4972089;28;87578;-61
2022/06/28 01:32:51;;;;;;;19.67;10.15;;;22.90;99.90;23.10;99060.00;;;;4959372;28;87098;-60
2022/06/28 01:35:18;;;;;;;17.15;9.93;;;22.80;99.90;23.00;99057.00;;;;4964377;28;87036;-60
2022/06/28 01:37:45;;;;;;;15.43;10.00;;;22.80;99.90;22.90;99067.00;;;;4980789;28;89675;-61
2022/06/28 01:40:12;;;;;;;13.88;9.32;;;22.70;99.90;22.90;99060.00;;;;4966730;28;89667;-61
2022/06/28 01:42:39;;;;;;;13.73;9.45;;;22.60;99.90;22.90;99059.00;;;;4965432;28;86947;-60
2022/06/28 01:45:06;;;;;;;14.77;8.93;;;22.60;99.90;22.80;99057.00;;;;4965053;28;87103;-61
2022/06/28 01:47:37;;;;;;;12.48;8.60;;;22.60;99.90;22.80;99058.00;;;;4965273;28;89542;-60
2022/06/28 01:50:22;;;;;;;10.65;9.13;;;22.50;99.90;22.80;99059.00;;;;4982522;28;87416;-61
2022/06/28 01:52:49;;;;;;;12.50;9.20;;;22.50;99.90;22.80;99061.00;;;;4982022;28;87200;-61
2022/06/28 01:55:42;;;;;;;16.92;10.07;;;22.50;99.90;23.00;99059.00;;;;4959709;28;86317;-60
2022/06/28 01:58:21;;;;;;;12.65;9.13;;;22.70;99.90;23.30;99063.00;;;;4964609;28;88952;-60
2022/06/28 02:00:48;;;;;;;11.35;8.63;;;22.90;99.90;23.80;99055.00;;;;4965423;28;89621;-60
2022/06/28 02:03:14;;;;;;;16.27;8.73;;;23.40;99.90;24.30;99056.00;;;;4961312;28;88362;-60
2022/06/28 02:06:09;;;;;;;17.17;8.93;;;23.80;99.90;24.60;99070.00;;;;4962482;28;87083;-61
2022/06/28 02:08:39;;;;;;;12.20;8.13;;;24.10;99.90;24.70;99057.00;;;;4977677;28;88681;-61
2022/06/28 02:11:12;;;;;;;12.85;8.98;;;24.20;99.90;24.90;99059.00;;;;4961030;28;87328;-61
2022/06/28 02:13:47;;;;;;;13.45;8.65;;;24.40;99.90;25.00;99050.00;;;;4961663;28;87080;-61
2022/06/28 02:16:34;;;;;;;11.55;7.85;;;24.50;99.90;25.10;99060.00;;;;4948334;28;87936;-61
2022/06/28 02:19:02;;;;;;;13.95;8.43;;;24.60;99.90;25.20;99063.00;;;;4961240;28;88442;-61
2022/06/28 02:21:30;;;;;;;12.15;8.77;;;24.60;99.90;25.50;99068.00;;;;4961429;28;88473;-61
2022/06/28 02:23:56;;;;;;;9.85;8.45;;;25.00;99.90;25.80;99076.00;;;;4961325;28;87096;-61
2022/06/28 02:26:22;;;;;;;12.60;8.15;;;25.20;99.90;25.90;99068.00;;;;4962018;28;87131;-61
2022/06/28 02:28:48;;;;;;;12.20;8.48;;;25.40;99.90;26.10;99064.00;;;;4960241;28;89534;-61
2022/06/28 02:31:15;;;;;;;13.57;8.40;;;25.50;99.90;26.20;99065.00;;;;4944513;28;91366;-61
2022/06/28 02:33:42;;;;;;;13.65;8.75;;;25.60;99.90;26.10;99082.00;;;;4960888;28;87074;-61
2022/06/28 02:41:38;;;;;;;16.83;8.95;;;25.60;99.90;26.30;99078.00;;;;4961125;28;87785;-61
2022/06/28 02:44:05;;;;;;;14.38;9.18;;;25.70;99.90;26.50;99085.00;;;;4961328;28;87438;-61
2022/06/28 02:46:32;;;;;;;13.82;8.93;;;25.90;99.90;26.20;99075.00;;;;4962632;28;86365;-61
2022/06/28 02:48:58;;;;;;;13.23;8.77;;;25.60;99.90;26.20;99085.00;;;;4960882;28;88544;-61
2022/06/28 02:51:24;;;;;;;14.90;8.57;;;25.70;99.90;26.40;99079.00;;;;4960566;28;88213;-61
2022/06/28 02:53:52;;;;;;;10.70;9.18;;;25.80;99.90;26.60;99087.00;;;;4961306;28;87864;-62
2022/06/28 02:56:19;;;;;;;13.82;8.55;;;26.00;99.90;26.90;99075.00;;;;4977741;28;87528;-61
2022/06/28 02:58:45;;;;;;;15.27;9.23;;;26.20;99.90;27.00;99085.00;;;;4961854;28;88242;-61
2022/06/28 03:01:12;;;;;;;11.68;9.07;;;26.30;99.90;27.00;99084.00;;;;4962159;28;87688;-61
2022/06/28 03:03:38;;;;;;;12.10;9.43;;;26.30;99.90;27.00;99088.00;;;;4960639;28;87708;-61
2022/06/28 03:06:05;;;;;;;17.52;9.88;;;26.30;99.90;26.60;99085.00;;;;4961725;28;87148;-61
2022/06/28 03:08:31;;;;;;;10.40;8.85;;;26.10;99.90;27.00;99083.00;;;;4961421;28;87926;-61
2022/06/28 03:10:58;;;;;;;12.15;8.68;;;26.50;99.90;27.20;99076.00;;;;4960964;28;88456;-61
2022/06/28 03:13:24;;;;;;;15.07;8.52;;;26.50;99.90;27.50;99080.00;;;;4962034;28;87737;-61
2022/06/28 03:15:51;;;;;;;11.88;8.52;;;26.90;99.90;27.90;99080.00;;;;4960003;28;88134;-62
2022/06/28 03:18:17;;;;;;;12.50;8.40;;;27.10;99.90;27.90;99090.00;;;;4959423;28;89555;-62
2022/06/28 03:20:44;;;;;;;10.75;7.70;;;27.20;99.90;27.90;99101.00;;;;4927953;28;91342;-62
2022/06/28 03:23:11;;;;;;;11.23;8.35;;;27.20;99.90;27.70;99096.00;;;;4960572;28;87503;-61
2022/06/28 03:25:37;;;;;;;11.57;7.88;;;27.00;99.90;27.40;99100.00;;;;4957678;28;87507;-61
2022/06/28 03:28:04;;;;;;;12.55;7.80;;;26.90;99.90;27.60;99110.00;;;;4958750;28;89288;-61
2022/06/28 03:30:31;;;;;;;15.18;7.82;;;26.90;99.90;27.50;99112.00;;;;4960490;28;89713;-61
2022/06/28 03:32:58;;;;;;;12.10;8.52;;;26.90;99.90;27.70;99116.00;;;;4960165;28;87082;-61
2022/06/28 03:35:29;;;;;;;14.98;8.43;;;27.00;99.90;27.80;99112.00;;;;4960256;28;86221;-63
2022/06/28 03:37:56;;;;;;;11.73;8.50;;;27.10;99.90;27.20;99118.00;;;;4991749;28;88739;-61
2022/06/28 03:40:41;;;;;;;9.98;8.15;;;26.60;99.90;27.20;99117.00;;;;4960840;28;88640;-61
2022/06/28 03:43:08;;;;;;;13.38;7.90;;;26.60;99.90;27.10;99123.00;;;;4960071;28;88020;-61
2022/06/28 03:45:34;;;;;;;12.18;7.80;;;26.40;99.90;26.90;99118.00;;;;4960275;28;87080;-61
2022/06/28 03:48:30;;;;;;;16.80;8.80;;;26.30;99.90;27.30;99116.00;;;;4960218;28;88645;-61
2022/06/28 03:51:26;;;;;;;12.18;8.00;;;26.60;99.90;27.80;99100.00;;;;4914553;28;88075;-61
2022/06/28 03:54:12;;;;;;;10.63;7.78;;;27.10;99.90;27.70;99108.00;;;;4964177;28;87170;-61
2022/06/28 03:56:45;;;;;;;13.38;7.85;;;27.00;99.90;27.60;99103.00;;;;4964323;28;86989;-61
2022/06/28 03:59:12;;;;;;;14.23;7.82;;;26.90;99.90;27.60;99111.00;;;;4963697;28;88808;-61
2022/06/28 04:01:38;;;;;;;9.38;7.45;;;27.00;99.90;27.50;99111.00;;;;4964151;28;88699;-61
2022/06/28 04:04:04;;;;;;;12.20;7.70;;;26.80;99.90;28.00;99111.00;;;;4963236;28;86946;-61
2022/06/28 04:06:33;;;;;;;13.93;7.80;;;27.30;99.90;28.40;99110.00;;;;4964075;28;87154;-61
2022/06/28 04:09:00;;;;;;;16.25;8.10;;;27.70;99.90;28.80;99113.00;;;;4979095;28;89931;-61
2022/06/28 04:11:26;;;;;;;8.30;6.60;;;28.00;99.50;28.90;99111.00;;;;4962907;28;89162;-61
2022/06/28 04:13:54;;;;;;;10.27;6.30;;;28.30;98.10;28.80;99113.00;;;;4963564;28;87060;-61
2022/06/28 04:16:22;;;;;;;10.68;6.40;;;28.20;97.30;28.70;99105.00;;;;4963562;28;87902;-61
2022/06/28 04:18:50;;;;;;;9.43;6.25;;;28.00;97.20;28.50;99108.00;;;;4963393;28;87617;-61
2022/06/28 04:21:26;;;;;;;7.75;6.93;;;27.90;97.60;28.40;99112.00;;;;4963265;28;88301;-61
2022/06/28 04:24:05;;;;;;;9.75;6.85;;;27.90;97.70;28.40;99117.00;;;;4963615;28;87129;-61
2022/06/28 04:26:32;;;;;;;10.57;6.55;;;27.80;97.80;28.40;99119.00;;;;4963382;28;86385;-61
2022/06/28 04:29:00;;;;;;;11.45;6.90;;;27.90;98.10;28.60;99123.00;;;;4963001;28;88664;-61
2022/06/28 04:31:29;;;;;;;11.85;7.43;;;28.00;98.20;28.90;99123.00;;;;4962932;28;88455;-60
2022/06/28 04:33:55;;;;;;;11.48;7.60;;;28.10;98.30;29.00;99124.00;;;;4961733;28;88087;-61
2022/06/28 04:36:26;;;;;;;12.98;7.55;;;28.20;98.20;29.20;99123.00;;;;4962381;28;86999;-61
2022/06/28 04:38:53;;;;;;;13.73;7.30;;;28.40;97.40;29.30;99131.00;;;;4960940;28;88711;-60
2022/06/28 04:41:26;;;;;;;;;;;28.70;97.20;29.30;99130.00;;;;4962713;28;88128;-60
2022/06/28 04:43:56;;;;;;;12.40;7.88;;;28.60;97.30;28.40;99142.00;;;;4996408;28;87448;-60
2022/06/28 04:46:35;;;;;;;10.02;7.68;;;27.80;98.50;28.80;99128.00;;;;4962761;28;87082;-60
2022/06/28 04:49:05;;;;;;;15.30;7.53;;;28.00;98.60;29.10;99124.00;;;;4962427;28;90151;-60
2022/06/28 04:51:53;;;;;;;9.00;6.63;;;28.30;98.00;29.20;99134.00;;;;4962749;28;87346;-60
2022/06/28 04:54:28;;;;;;;13.05;8.05;;;28.30;97.70;28.40;99129.00;;;;4959394;28;87094;-61
2022/06/28 04:57:13;;;;;;;14.20;8.27;;;27.70;98.50;27.70;99130.00;;;;4945378;28;86960;-61
2022/06/28 04:59:42;;;;;;;13.98;7.53;;;27.20;99.50;28.20;99137.00;;;;4956477;28;89585;-61
2022/06/28 05:02:18;;;;;;;8.13;7.32;;;27.60;99.20;28.60;99131.00;;;;4962660;28;88518;-61
2022/06/28 05:04:44;;;;;;;11.73;6.97;;;27.80;98.50;28.60;99136.00;;;;4962761;28;86946;-61
2022/06/28 05:07:15;;;;;;;11.63;6.20;;;27.80;97.90;28.90;99136.00;;;;4963447;28;86982;-61
2022/06/28 05:09:42;;;;;;;12.32;7.15;;;28.20;97.60;28.50;99145.00;;;;4961820;28;87879;-61
2022/06/28 05:12:09;;;;;;;11.60;7.47;;;27.50;98.60;27.80;99132.00;;;;4962041;28;88443;-61
2022/06/28 05:14:38;;;;;;;9.20;7.72;;;27.10;99.30;27.20;99147.00;;;;4946267;28;87154;-61
2022/06/28 05:17:05;;;;;;;11.38;7.63;;;26.50;99.90;26.50;99144.00;;;;4963020;28;86415;-61
2022/06/28 05:19:31;;;;;;;13.52;8.45;;;25.90;99.90;26.10;99138.00;;;;4961707;28;89091;-60
2022/06/28 05:21:58;;;;;;;11.88;7.65;;;25.50;99.90;25.70;99136.00;;;;4962115;28;87921;-61
2022/06/28 05:24:25;;;;;;;13.30;8.05;;;25.30;99.90;26.10;99140.00;;;;4961293;28;88333;-61
2022/06/28 05:27:10;;;;;;;10.13;8.35;;;25.50;99.90;26.60;99136.00;;;;4962659;28;87256;-61
2022/06/28 05:29:39;;;;;;;12.57;8.43;;;26.00;99.90;27.00;99137.00;;;;4962367;28;89722;-62
2022/06/28 05:32:06;;;;;;;14.93;8.27;;;26.20;99.90;27.60;99117.00;;;;4961299;28;88459;-61
2022/06/28 05:34:32;;;;;;;10.55;8.02;;;26.80;99.90;28.30;99135.00;;;;4960934;28;87183;-61
2022/06/28 05:36:58;;;;;;;13.05;8.40;;;27.50;99.90;28.60;99128.00;;;;4961859;28;87362;-60
2022/06/28 05:39:24;;;;;;;13.27;8.00;;;27.70;99.70;28.40;99138.00;;;;4960767;28;88499;-62
2022/06/28 05:41:50;;;;;;;13.63;8.57;;;27.60;99.60;27.90;99132.00;;;;4963095;28;86373;-62
2022/06/28 05:44:16;;;;;;;19.27;8.07;;;27.20;99.60;27.60;99133.00;;;;4961782;28;86965;-62
2022/06/28 05:46:44;;;;;;;13.18;8.10;;;26.80;99.90;27.70;99150.00;;;;4962356;28;87324;-62
2022/06/28 05:49:10;;;;;;;12.18;7.82;;;27.00;99.90;27.80;99138.00;;;;4961131;28;89535;-62
2022/06/28 05:51:37;;;;;;;9.98;6.88;;;27.00;98.40;27.90;99144.00;;;;4962306;28;88542;-62
2022/06/28 05:54:04;;;;;;;11.00;6.55;;;27.20;97.90;27.90;99147.00;;;;4962253;28;87564;-62
2022/06/28 05:56:32;;;;;;;13.63;7.20;;;27.20;97.70;27.60;99149.00;;;;4961747;28;87188;-62
2022/06/28 05:58:58;;;;;;;12.80;7.35;;;27.00;97.50;27.30;99148.00;;;;4961784;28;89081;-62
2022/06/28 06:01:25;;;;;;;10.57;6.75;;;26.70;98.60;27.40;99154.00;;;;4963119;28;87574;-62
2022/06/28 06:03:54;;;;;;;11.07;6.57;;;26.80;98.70;27.10;99176.00;;;;4961839;28;87030;-62
2022/06/28 06:06:22;;;;;;;11.18;6.10;;;26.50;98.10;27.10;99172.00;;;;4963672;28;86642;-62
2022/06/28 06:08:51;;;;;;;12.82;6.07;;;26.30;98.30;27.30;99154.00;;;;4961370;28;88593;-62
2022/06/28 06:11:18;;;;;;;15.13;6.07;;;26.60;98.80;27.30;99161.00;;;;4961019;28;88385;-62
2022/06/28 06:13:44;;;;;;;11.48;7.18;;;26.50;98.40;26.90;99160.00;;;;4960466;28;88030;-62
2022/06/28 06:16:10;;;;;;;10.35;7.10;;;26.10;99.20;26.80;99133.00;;;;4993018;28;87465;-62
2022/06/28 06:18:36;;;;;;;11.10;6.50;;;26.10;99.80;26.70;99146.00;;;;4961095;28;88851;-62
2022/06/28 06:21:02;;;;;;;13.30;6.63;;;26.20;99.50;26.80;99145.00;;;;4961145;28;87584;-62
2022/06/28 06:23:29;;;;;;;11.63;5.70;;;26.10;99.80;26.90;99143.00;;;;4961471;28;88092;-62
2022/06/28 06:26:04;;;;;;;17.63;6.00;;;26.20;98.20;26.70;99147.00;;;;4962405;28;87024;-62
2022/06/28 06:28:31;;;;;;;10.02;5.50;;;26.20;98.00;26.50;99154.00;;;;4961120;28;88475;-62
2022/06/28 06:30:57;;;;;;;12.43;6.22;;;25.90;98.70;26.20;99148.00;;;;4961495;28;87021;-62
2022/06/28 06:34:01;;;;;;;11.90;5.30;;;25.50;99.40;26.10;99147.00;;;;4903114;28;87164;-63
2022/06/28 06:36:37;;;;;;;14.23;6.15;;;25.60;99.50;25.60;99157.00;;;;4903695;28;87411;-63
2022/06/28 06:39:04;;;;;;;11.48;5.75;;;25.20;99.90;25.40;99144.00;;;;4922439;28;91230;-62
2022/06/28 06:41:31;;;;;;;12.60;6.25;;;25.00;99.90;25.20;99157.00;;;;4976306;28;88260;-62
2022/06/28 06:43:59;;;;;;;11.30;6.03;;;25.00;99.90;25.10;99130.00;;;;4959970;28;87280;-62
2022/06/28 06:46:33;;;;;;;13.25;6.18;;;24.80;99.90;25.30;99137.00;;;;4956381;28;90033;-62
2022/06/28 06:48:59;;;;;;;17.90;6.68;;;25.10;99.90;25.40;99156.00;;;;4961411;28;88087;-62
2022/06/28 06:51:25;;;;;;;19.17;6.45;;;25.20;99.90;25.20;99143.00;;;;4959695;28;87202;-62
2022/06/28 06:53:52;;;;;;;12.65;6.60;;;25.00;99.90;25.30;99147.00;;;;4961954;28;86891;-62
2022/06/28 06:56:18;;;;;;;10.73;5.90;;;25.10;99.90;25.20;99163.00;;;;4961024;28;86820;-62
2022/06/28 06:58:44;;;;;;;14.38;6.05;;;25.10;99.90;24.90;99165.00;;;;4957477;28;88646;-62
2022/06/28 07:01:10;;;;;;;16.05;6.18;;;24.70;99.90;24.70;99166.00;;;;4973263;28;88627;-62
2022/06/28 07:03:44;;;;;;;11.07;5.97;;;24.50;99.90;24.40;99159.00;;;;4946557;28;88036;-62
2022/06/28 07:06:13;;;;;;;9.25;5.50;;;24.20;99.90;24.80;99158.00;;;;4974892;28;87337;-62
2022/06/28 07:08:39;;;;;;;10.85;5.90;;;24.60;99.90;24.90;99157.00;;;;4961330;28;87686;-62
2022/06/28 07:11:08;;;;;;;12.73;5.75;;;24.70;99.90;24.90;99164.00;;;;4960662;28;90212;-62
2022/06/28 07:13:34;;;;;;;9.10;5.55;;;24.70;99.90;25.00;99155.00;;;;4960814;28;86981;-62
2022/06/28 07:16:01;;;;;;;11.98;5.63;;;24.80;99.90;24.70;99167.00;;;;4960680;28;87147;-62
2022/06/28 07:18:29;;;;;;;11.30;5.32;;;24.50;99.90;24.80;99157.00;;;;4961053;28;87783;-62
2022/06/28 07:20:57;;;;;;;10.55;6.00;;;24.60;99.90;24.80;99158.00;;;;4961792;28;87532;-62
2022/06/28 07:23:23;;;;;;;9.20;5.47;;;24.60;99.90;24.90;99162.00;;;;4959304;28;86926;-62
2022/06/28 07:25:50;;;;;;;11.77;6.40;;;24.70;99.90;25.00;99155.00;;;;4960841;28;87075;-62
2022/06/28 07:28:16;;;;;;;13.95;5.25;;;24.80;99.90;25.10;99150.00;;;;4959946;28;89719;-62
2022/06/28 07:30:43;;;;;;;12.88;5.32;;;24.80;99.70;25.30;99158.00;;;;4961822;28;87558;-62
2022/06/28 07:33:10;;;;;;;16.33;5.50;;;25.10;99.80;25.40;99163.00;;;;4959818;28;87228;-62
2022/06/28 07:35:36;;;;;;;10.00;5.13;;;25.20;99.20;25.10;99165.00;;;;4960673;28;87158;-62
2022/06/28 07:38:02;;;;;;;8.98;5.03;;;24.90;98.10;25.20;99168.00;;;;4958984;28;88455;-62
2022/06/28 07:40:49;;;;;;;11.55;5.90;;;25.00;97.80;25.10;99162.00;;;;4929775;28;87577;-62
2022/06/28 07:43:33;;;;;;;12.77;5.20;;;25.00;98.20;25.10;99176.00;;;;4960948;28;87624;-62
2022/06/28 07:46:06;;;;;;;8.32;4.72;;;24.90;98.20;25.00;99188.00;;;;4960393;28;86330;-62
2022/06/28 07:48:33;;;;;;;6.43;4.70;;;24.80;98.00;25.10;99193.00;;;;4959944;28;88612;-62
2022/06/28 07:53:51;;;;;;;12.88;4.70;;;25.00;97.70;25.10;99195.00;;;;4986060;28;88434;-62
2022/06/28 07:56:27;;;;;;;9.35;4.20;;;25.00;97.30;25.10;99180.00;;;;4961407;28;86887;-62
2022/06/28 07:58:54;;;;;;;17.58;4.45;;;24.90;96.20;25.10;99174.00;;;;4959382;28;88801;-61
2022/06/28 08:01:26;;;;;;;11.50;4.90;;;24.90;96.40;25.00;99181.00;;;;4957265;28;87402;-62
2022/06/28 08:03:53;;;;;;;6.55;4.30;;;24.80;96.80;25.00;99202.00;;;;4967183;28;87054;-62
2022/06/28 08:06:20;;;;;;;10.38;4.25;;;24.80;95.70;24.90;99202.00;;;;4970102;28;87136;-62
2022/06/28 08:08:51;;;;;;;;;;;24.80;95.50;24.80;99215.00;;;;4977460;28;87728;-64
2022/06/28 08:11:17;;;;;;;5.93;4.47;;;24.60;95.60;24.70;99188.00;;;;4967742;28;87910;-62
2022/06/28 08:13:47;;;;;;;10.50;4.95;;;24.60;95.80;24.40;99196.00;;;;4963773;28;87451;-62
2022/06/28 08:16:15;;;;;;;17.65;5.10;;;24.20;96.40;24.30;99200.00;;;;4985442;28;87032;-62
2022/06/28 08:18:43;;;;;;;8.52;4.20;;;24.10;96.40;24.40;99212.00;;;;4974620;28;89752;-62
2022/06/28 08:21:10;;;;;;;11.93;4.35;;;24.20;96.00;24.40;99212.00;;;;4979816;28;89457;-62
2022/06/28 08:23:36;;;;;;;12.18;3.90;;;24.20;94.90;24.40;99230.00;;;;4968035;28;87361;-62
2022/06/28 08:26:02;;;;;;;7.97;4.30;;;24.20;94.80;24.40;99222.00;;;;4969649;28;87126;-62
2022/06/28 08:28:28;;;;;;;8.48;3.70;;;24.20;94.10;24.30;99219.00;;;;4973061;28;87872;-62
2022/06/28 08:30:58;;;;;;;17.52;4.45;;;24.20;94.20;24.30;99212.00;;;;4963144;28;87324;-62
2022/06/28 08:33:25;;;;;;;10.55;3.88;;;24.10;94.60;24.40;99209.00;;;;4968242;28;87473;-62
2022/06/28 08:35:51;;;;;;;13.55;3.78;;;24.20;94.60;24.50;99227.00;;;;4954974;28;86392;-60
2022/06/28 08:38:17;;;;;;;12.73;3.90;;;24.30;93.60;24.50;99202.00;;;;4969169;28;87710;-62
2022/06/28 08:40:44;;;;;;;18.13;4.25;;;24.30;94.10;24.60;99218.00;;;;4974863;28;87542;-60
2022/06/28 08:43:10;;;;;;;4.60;3.00;;;24.40;94.40;24.60;99219.00;;;;4975382;28;87985;-61
2022/06/28 08:45:37;;;;;;;11.00;3.13;;;24.40;92.50;24.50;99215.00;;;;4974429;28;87496;-61
2022/06/28 08:48:49;;;;;;;8.88;2.92;;;24.20;92.40;24.50;99213.00;;;;4971439;28;87690;-61
2022/06/28 08:51:17;;;;;;;6.88;3.00;;;24.30;92.60;24.40;99228.00;;;;4969547;28;87380;-61
2022/06/28 08:53:47;;;;;;;9.65;3.25;;;24.20;92.90;24.50;99232.00;;;;4967655;28;87100;-61
2022/06/28 08:56:15;;;;;;;8.37;3.23;;;24.30;92.00;24.50;99208.00;;;;4968304;28;86992;-61
2022/06/28 08:58:44;;;;;;;7.60;2.72;;;24.30;91.40;24.50;99214.00;;;;4965574;28;87429;-62
2022/06/28 09:01:13;;;;;;;7.97;2.60;;;24.20;90.50;24.50;99225.00;;;;4980378;28;87531;-62
2022/06/28 09:03:39;;;;;;;10.27;2.35;;;24.40;90.70;24.50;99205.00;;;;4977437;28;87182;-61
2022/06/28 09:06:06;;;;;;;3.58;2.40;;;24.40;90.50;24.60;99225.00;;;;4983251;28;87933;-61
2022/06/28 09:08:33;;;;;;;13.45;2.50;;;24.40;90.20;24.50;99239.00;;;;4978571;28;89589;-61
2022/06/28 09:10:59;;;;;;;5.35;2.10;;;24.40;88.20;24.50;99232.00;;;;4977160;28;88511;-62
2022/06/28 09:13:25;;;;;;;5.97;2.33;;;24.40;86.70;24.50;99220.00;;;;4967256;28;87232;-61
2022/06/28 09:15:58;;;;;;;6.95;2.38;;;24.40;86.60;24.60;99210.00;;;;4968707;28;87010;-61
2022/06/28 09:18:46;;;;;;;9.68;2.42;;;24.40;87.90;24.50;99235.00;;;;4970906;28;87843;-61
2022/06/28 09:21:16;;;;;;;10.27;2.47;;;24.30;86.80;24.60;99198.00;;;;4964247;28;87472;-61
2022/06/28 09:23:47;;;;;;;14.43;2.50;;;24.40;87.10;24.70;99227.00;;;;4969974;28;86975;-61
2022/06/28 09:26:16;;;;;;;;;;;24.50;84.60;24.60;99221.00;;;;4974649;28;86239;-61
2022/06/28 09:28:51;;;;;;;7.18;2.30;;;24.40;86.10;24.70;99231.00;;;;4976812;28;88507;-61
2022/06/28 09:31:23;;;;;;;8.52;2.40;;;24.40;86.10;24.70;99217.00;;;;4968815;28;87428;-61
2022/06/28 09:34:04;;;;;;;12.85;2.70;;;24.50;87.40;24.70;99237.00;;;;4971054;28;87960;-61
2022/06/28 09:36:38;;;;;;;13.48;2.58;;;24.50;85.60;24.50;99227.00;;;;4970299;28;87114;-61
2022/06/28 09:39:18;;;;;;;6.90;2.17;;;24.20;86.20;24.50;99213.00;;;;4970127;28;87645;-61
2022/06/28 09:41:55;;;;;;;9.85;1.75;;;24.30;85.10;24.60;99213.00;;;;4971033;28;87860;-61
2022/06/28 09:44:26;;;;;;;17.35;2.85;;;24.40;85.90;24.80;99207.00;;;;4973651;28;86959;-61
2022/06/28 09:46:54;;;;;;;;;;;24.50;84.50;24.90;99214.00;;;;4963953;28;88043;-63
2022/06/28 09:49:28;;;;;;;9.57;2.40;;;24.60;84.30;24.80;99229.00;;;;4962492;28;88490;-61
2022/06/28 09:52:00;;;;;;;5.63;1.60;;;24.60;83.80;24.80;99214.00;;;;4965810;28;87356;-61
2022/06/28 09:54:28;;;;;;;7.38;1.95;;;24.60;84.40;24.50;99222.00;;;;4963286;28;87360;-61
2022/06/28 09:56:56;;;;;;;7.60;1.98;;;24.30;80.50;24.30;99231.00;;;;4963262;28;87691;-61
2022/06/28 09:59:27;;;;;;;8.63;1.98;;;24.00;80.60;24.40;99228.00;;;;4969504;28;88571;-61
2022/06/28 10:01:55;;;;;;;4.20;1.55;;;24.10;82.10;24.40;99229.00;;;;4979651;28;88428;-63
2022/06/28 10:04:24;;;;;;;9.20;1.90;;;24.10;78.20;24.50;99216.00;;;;4976146;28;87582;-61
2022/06/28 10:06:50;;;;;;;4.90;1.70;;;24.30;78.60;24.50;99230.00;;;;4982518;28;86887;-61
2022/06/28 10:09:20;;;;;;;4.38;1.75;;;24.20;78.70;24.70;99224.00;;;;4964537;28;90654;-60
2022/06/28 10:17:57;;;;;;;5.20;1.50;;;24.20;77.00;24.70;99216.00;;;;4982283;28;86274;-61
2022/06/28 10:20:28;;;;;;;5.30;1.90;;;24.50;77.50;24.60;99206.00;;;;4962907;28;88571;-61
2022/06/28 10:23:21;;;;;;;11.27;1.98;;;24.30;72.90;24.70;99202.00;;;;4975129;28;87776;-61
2022/06/28 10:26:16;;;;;;;5.60;1.58;;;24.40;75.00;24.90;99208.00;;;;4970811;28;88052;-61
2022/06/28 10:28:45;;;;;;;9.95;1.90;;;24.70;77.30;25.00;99215.00;;;;4975755;28;88143;-61
2022/06/28 10:31:23;;;;;;;13.02;1.95;;;24.60;74.40;24.90;99218.00;;;;4980171;28;87742;-61
2022/06/28 10:33:51;;;;;;;4.18;1.38;;;24.70;74.60;25.00;99217.00;;;;4970790;28;87330;-61
2022/06/28 10:36:20;;;;;;;11.15;1.60;;;24.70;72.60;25.00;99206.00;;;;4961404;28;87142;-61
2022/06/28 10:39:07;;;;;;;7.25;1.60;;;24.80;72.90;25.00;99204.00;;;;4980937;28;87924;-61
2022/06/28 10:41:41;;;;;;;11.07;1.88;;;24.80;73.90;25.10;99201.00;;;;4980961;28;88747;-61
2022/06/28 10:44:20;;;;;;;6.13;1.52;;;24.80;74.70;25.20;99201.00;;;;4979155;28;87504;-61
2022/06/28 10:47:14;;;;;;;6.82;1.70;;;24.90;72.90;25.10;99225.00;;;;4979320;28;87310;-61
2022/06/28 10:49:45;;;;;;;6.10;1.50;;;24.80;71.30;25.00;99234.00;;;;4981525;28;86973;-61
2022/06/28 10:52:34;;;;;;;5.60;1.33;;;24.70;70.40;25.10;99209.00;;;;4980304;28;88803;-61
2022/06/28 10:55:03;;;;;;;5.95;1.40;;;24.80;68.20;25.00;99210.00;;;;4977324;28;88362;-60
2022/06/28 10:57:37;;;;;;;5.93;2.05;;;24.70;68.00;25.10;99214.00;;;;4981426;28;87057;-61
2022/06/28 11:00:26;;;;;;;6.72;1.38;;;24.80;68.10;25.10;99213.00;;;;4980900;28;87344;-60
2022/06/28 11:02:52;;;;;;;3.75;1.35;;;24.90;65.50;25.20;99194.00;;;;4986412;28;87766;-61
2022/06/28 11:05:23;;;;;;;7.03;1.67;;;25.00;65.20;25.30;99199.00;;;;4983920;28;90099;-61
2022/06/28 11:08:03;;;;;;;8.02;1.60;;;25.00;66.50;25.20;99224.00;;;;4980398;28;86899;-61
2022/06/28 11:10:30;;;;;;;4.15;1.60;;;25.00;66.30;25.10;99218.00;;;;4961481;28;87705;-61
2022/06/28 11:13:19;;;;;;;6.15;1.60;;;24.90;64.50;25.20;99226.00;;;;4982673;28;87730;-61
2022/06/28 11:15:46;;;;;;;2.97;1.23;;;24.90;64.00;25.20;99199.00;;;;4973390;28;87938;-61
2022/06/28 11:18:17;;;;;;;5.55;1.60;;;25.00;62.90;25.30;99199.00;;;;4978802;28;88161;-61
2022/06/28 11:20:43;;;;;;;5.80;1.83;;;25.10;63.00;25.20;99209.00;;;;4982542;28;87439;-61